Coral Springs, FL (33071)

5:16 PM EDT on August 28, 2016 (GMT -0400)
Oakwood | | Change Station

Elev 13 ft 26.24 °N, 80.26 °W | Updated 4 seconds ago

Partly Cloudy
Partly Cloudy
81.6 °F
Feels Like 93 °F
N
3.0
Wind Variable Wind from East
Gusts 7.0 mph

Today
High -- | Low -- °F
--% Chance of Precip.
Yesterday
High -- | Low -- °F
Precip. -- in
Pressure 29.89 in
Visibility 10.0 miles
Clouds Few 2700 ft
Heat Index 93 °F
Dew Point 82 °F
Humidity 100%
Rainfall 0.58 in
Snow Depth Not available.
6:59 AM 7:44 PM
Waning Crescent, 13% visible
METAR KFXE 282053Z 11012KT 10SM FEW027 29/24 A2988 RMK AO2 SLP121 60038 T02890239 56013
Pressure 29.89 in
Visibility 10.0 miles
Clouds Few 2700 ft
Heat Index 93 °F
Dew Point 82 °F
Humidity 100%
Rainfall 0.58 in
Snow Depth Not available.
6:59 AM 7:44 PM
Waning Crescent, 13% visible
METAR KFXE 282053Z 11012KT 10SM FEW027 29/24 A2988 RMK AO2 SLP121 60038 T02890239 56013

10-Day Weather Forecast

Almanac

Astronomy

Aug. 28, 2016 Rise Set
Actual Time
Civil Twilight
Nautical Twilight
Astronomical Twilight
Moon
Length of Visible Light
Length of Day
Tomorrow will be .
, % of the Moon is Illuminated

Today's Extremes

State Highs State Lows

Community

WunderPhotos

Upload Photos

1,935,692 photos uploaded!

WunderBlog® & News

Nearby

Air Quality

  Air Quality AQ Index Pollutant
Not available.

Snow Depth

Station Depth Elevation

Earthquake Activity

City Distance Mag. Time & Date
Minimum magnitude displayed is 2.5.

Coastal Water Temperatures

Place Temperature

Stations

Nearby Weather Stations

Station Location Temp. Windchill Dew Point Humidity Wind Precip. Elev Updated Type
                   

Watches & Warnings

There are currently no watches in effect.